Time;durP1;ratioP1;P1;durP2;ratioP2;P2;SDS_P1;SDS_P2;PMS_P1;PMS_P2;Temp;Humidity;BMP_temperature;BMP_pressure;BME280_temperature;BME280_humidity;BME280_pressure;Samples;Min_cycle;Max_cycle;Signal;HPM_P1;HPM_P2
2022/12/19 00:01:33;;;;;;;62.63;30.63;;;0.90;99.90;;;;;;5109683;28;20210;-68
2022/12/19 00:04:03;;;;;;;71.80;30.63;;;1.00;99.90;;;;;;5108260;28;20226;-67
2022/12/19 00:06:33;;;;;;;68.20;30.63;;;1.00;99.90;;;;;;5109277;28;20196;-68
2022/12/19 00:09:00;;;;;;;65.33;30.43;;;1.00;99.90;;;;;;5110635;28;20664;-68
2022/12/19 00:11:28;;;;;;;67.60;31.30;;;1.00;99.90;;;;;;5108877;28;20230;-68
2022/12/19 00:13:55;;;;;;;73.17;30.73;;;1.00;99.90;;;;;;5107488;28;20202;-68
2022/12/19 00:16:25;;;;;;;67.47;31.10;;;1.00;99.90;;;;;;5110921;28;20205;-68
2022/12/19 00:18:54;;;;;;;67.87;30.20;;;1.10;99.90;;;;;;5109837;28;20227;-69
2022/12/19 00:21:24;;;;;;;73.50;29.07;;;1.10;99.90;;;;;;5109282;28;20598;-68
2022/12/19 00:23:51;;;;;;;68.43;30.27;;;1.10;99.90;;;;;;5106232;28;20319;-68
2022/12/19 00:26:29;;;;;;;66.60;29.70;;;1.10;99.90;;;;;;5110081;28;20323;-68
2022/12/19 00:28:58;;;;;;;66.30;29.60;;;1.10;99.90;;;;;;5106388;28;20202;-69
2022/12/19 00:31:29;;;;;;;72.23;31.37;;;1.20;99.90;;;;;;5109286;28;20211;-69
2022/12/19 00:33:56;;;;;;;71.47;29.90;;;1.20;99.90;;;;;;5107138;28;20212;-68
2022/12/19 00:36:26;;;;;;;74.00;32.37;;;1.30;99.90;;;;;;5110378;28;20299;-68
2022/12/19 00:38:55;;;;;;;63.80;29.77;;;1.30;99.90;;;;;;5105115;28;20233;-69
2022/12/19 00:41:31;;;;;;;76.07;31.13;;;1.30;99.90;;;;;;5091442;28;20486;-68
2022/12/19 00:44:08;;;;;;;67.80;29.73;;;1.30;99.90;;;;;;5107393;28;20205;-68
2022/12/19 00:46:35;;;;;;;68.83;29.30;;;1.30;99.90;;;;;;5109484;28;20282;-70
2022/12/19 00:49:03;;;;;;;75.17;31.00;;;1.30;99.90;;;;;;5110052;28;20319;-70
2022/12/19 00:51:32;;;;;;;70.43;30.53;;;1.30;99.90;;;;;;5108655;28;20203;-69
2022/12/19 00:53:59;;;;;;;73.53;30.93;;;1.30;99.90;;;;;;5108269;28;20223;-68
2022/12/19 00:56:31;;;;;;;73.57;31.13;;;1.40;99.90;;;;;;5110027;28;20247;-68
2022/12/19 00:59:04;;;;;;;80.97;34.20;;;1.30;99.90;;;;;;5107449;28;20235;-68
2022/12/19 01:01:33;;;;;;;75.63;31.90;;;1.30;99.90;;;;;;5091924;28;20232;-68
2022/12/19 01:04:02;;;;;;;70.70;31.70;;;1.40;99.90;;;;;;5089702;28;20212;-68
2022/12/19 01:06:48;;;;;;;77.23;33.23;;;1.40;99.90;;;;;;5109103;28;20192;-68
2022/12/19 01:09:15;;;;;;;90.17;33.37;;;1.40;99.90;;;;;;5108712;28;20199;-68
2022/12/19 01:14:27;;;;;;;79.03;32.80;;;1.40;99.90;;;;;;5109757;28;20196;-68
2022/12/19 01:16:54;;;;;;;77.87;32.73;;;1.40;99.90;;;;;;5109428;28;20284;-68
2022/12/19 01:19:21;;;;;;;83.13;32.87;;;1.40;99.90;;;;;;5109828;28;20641;-68
2022/12/19 01:21:47;;;;;;;82.67;33.10;;;1.40;99.90;;;;;;5113908;28;20634;-68
2022/12/19 01:24:14;;;;;;;86.60;35.13;;;1.40;99.90;;;;;;5113661;28;20204;-68
2022/12/19 01:26:45;;;;;;;79.67;34.30;;;1.50;99.90;;;;;;5113688;28;20204;-68
2022/12/19 01:29:11;;;;;;;82.90;34.53;;;1.50;99.90;;;;;;5113752;28;20215;-68
2022/12/19 01:31:38;;;;;;;96.47;34.90;;;1.40;99.90;;;;;;5095597;28;20200;-68
2022/12/19 01:34:05;;;;;;;87.53;36.17;;;1.40;99.90;;;;;;5111869;28;20202;-68
2022/12/19 01:36:34;;;;;;;85.63;36.63;;;1.50;99.90;;;;;;5109364;28;20200;-67
2022/12/19 01:39:06;;;;;;;84.20;36.57;;;1.40;99.90;;;;;;5112250;28;20262;-68
2022/12/19 01:41:34;;;;;;;85.00;34.93;;;1.50;99.90;;;;;;5107876;28;20302;-68
2022/12/19 01:44:06;;;;;;;86.10;35.60;;;1.40;99.90;;;;;;5112626;28;20306;-68
2022/12/19 01:46:40;;;;;;;84.63;35.10;;;1.50;99.90;;;;;;5107807;28;20204;-67
2022/12/19 01:49:29;;;;;;;86.13;36.77;;;1.50;99.90;;;;;;5111241;28;20257;-68
2022/12/19 01:51:59;;;;;;;92.33;37.10;;;1.50;99.90;;;;;;5109270;28;20253;-69
2022/12/19 01:54:33;;;;;;;98.20;35.30;;;1.60;99.90;;;;;;5113190;28;20331;-69
2022/12/19 01:57:01;;;;;;;89.30;35.40;;;1.60;99.90;;;;;;5090040;28;20209;-68
2022/12/19 01:59:33;;;;;;;88.50;35.00;;;1.60;99.90;;;;;;5112674;28;20269;-68
2022/12/19 02:02:09;;;;;;;93.80;35.27;;;1.60;99.90;;;;;;5108273;28;20245;-69
2022/12/19 02:04:35;;;;;;;85.27;32.90;;;1.70;99.90;;;;;;5111952;28;20207;-67
2022/12/19 02:07:04;;;;;;;91.57;36.20;;;1.70;99.90;;;;;;5093814;28;20195;-68
2022/12/19 02:09:47;;;;;;;89.27;35.00;;;1.70;99.90;;;;;;5094287;28;20256;-67
2022/12/19 02:12:24;;;;;;;90.97;35.63;;;1.80;99.90;;;;;;5111439;28;20222;-68
2022/12/19 02:14:53;;;;;;;91.30;37.57;;;1.80;99.90;;;;;;5093798;28;20208;-69
2022/12/19 02:17:45;;;;;;;95.40;35.30;;;1.80;99.90;;;;;;5110113;28;20202;-69
2022/12/19 02:20:18;;;;;;;92.43;35.50;;;1.80;99.90;;;;;;5112046;28;20236;-68
2022/12/19 02:23:20;;;;;;;98.80;36.40;;;1.90;99.90;;;;;;5113231;28;20638;-68
2022/12/19 02:26:10;;;;;;;91.83;34.93;;;1.90;99.90;;;;;;5094652;28;20214;-68
2022/12/19 02:29:19;;;;;;;94.30;38.03;;;1.90;99.90;;;;;;5112370;28;20235;-68
2022/12/19 02:32:08;;;;;;;90.23;35.37;;;1.90;99.90;;;;;;5072420;28;20294;-68
2022/12/19 02:34:46;;;;;;;93.07;35.47;;;2.00;99.90;;;;;;5110348;28;20209;-68
2022/12/19 02:37:22;;;;;;;95.53;34.23;;;2.00;99.90;;;;;;5111284;28;20244;-67
2022/12/19 02:39:55;;;;;;;101.33;37.97;;;2.00;99.90;;;;;;5109648;28;20215;-68
2022/12/19 02:42:29;;;;;;;94.23;37.47;;;2.10;99.90;;;;;;5110731;28;20708;-68
2022/12/19 02:45:03;;;;;;;101.00;37.30;;;2.00;99.90;;;;;;5110563;28;20205;-68
2022/12/19 02:47:31;;;;;;;99.20;38.20;;;2.10;99.90;;;;;;5110975;28;20292;-69
2022/12/19 02:49:58;;;;;;;96.63;37.50;;;2.10;99.90;;;;;;5091399;28;20233;-68
2022/12/19 02:52:24;;;;;;;102.90;39.40;;;2.20;99.90;;;;;;5111704;28;20732;-68
2022/12/19 02:54:55;;;;;;;114.10;38.03;;;2.20;99.90;;;;;;5111777;28;20290;-68
2022/12/19 02:57:28;;;;;;;104.10;38.93;;;2.30;99.90;;;;;;5111973;28;20225;-68
2022/12/19 03:00:06;;;;;;;105.10;39.37;;;2.30;99.90;;;;;;5111154;28;20304;-68
2022/12/19 03:02:32;;;;;;;100.77;39.43;;;2.30;99.90;;;;;;5110846;28;20706;-68
2022/12/19 03:05:11;;;;;;;107.43;40.37;;;2.40;99.90;;;;;;5091220;28;20228;-68
2022/12/19 03:08:08;;;;;;;110.23;40.10;;;2.30;99.90;;;;;;5110854;28;20225;-67
2022/12/19 03:10:43;;;;;;;114.37;40.43;;;2.40;99.90;;;;;;5108811;28;20200;-68
2022/12/19 03:13:33;;;;;;;115.73;40.80;;;2.40;99.90;;;;;;5108130;28;20215;-67
2022/12/19 03:16:02;;;;;;;120.27;41.07;;;2.40;99.90;;;;;;5108781;28;20249;-67
2022/12/19 03:18:30;;;;;;;116.87;39.50;;;2.40;99.90;;;;;;5109042;28;20291;-67
2022/12/19 03:21:20;;;;;;;110.93;40.10;;;2.40;99.90;;;;;;5111343;28;20279;-68
2022/12/19 03:23:49;;;;;;;116.47;41.20;;;2.40;99.90;;;;;;5108710;28;20304;-69
2022/12/19 03:26:20;;;;;;;116.13;41.10;;;2.40;99.90;;;;;;5111708;28;20214;-69
2022/12/19 03:29:02;;;;;;;134.20;42.57;;;2.50;99.90;;;;;;5107764;28;20198;-67
2022/12/19 03:31:31;;;;;;;111.17;40.23;;;2.40;99.90;;;;;;5109659;28;20198;-68
2022/12/19 03:34:02;;;;;;;124.20;40.60;;;2.50;99.90;;;;;;5111246;28;20298;-68
2022/12/19 03:36:38;;;;;;;120.57;40.50;;;2.50;99.90;;;;;;5110828;28;20722;-68
2022/12/19 03:39:07;;;;;;;100.40;37.40;;;2.50;99.90;;;;;;5110503;28;20772;-68
2022/12/19 03:44:25;;;;;;;107.43;38.53;;;2.60;99.90;;;;;;5109039;28;20611;-68
2022/12/19 03:47:14;;;;;;;113.57;40.50;;;2.60;99.90;;;;;;5107703;28;20202;-68
2022/12/19 03:49:41;;;;;;;104.70;38.47;;;2.60;99.90;;;;;;5109495;28;20811;-68
2022/12/19 03:52:26;;;;;;;113.13;38.50;;;2.70;99.90;;;;;;5108368;28;20214;-68
2022/12/19 03:55:07;;;;;;;102.77;38.03;;;2.70;99.90;;;;;;5110166;28;20573;-68
2022/12/19 03:57:41;;;;;;;123.23;39.40;;;2.70;99.90;;;;;;5104461;28;20305;-69
2022/12/19 04:00:13;;;;;;;117.53;39.17;;;2.80;99.90;;;;;;5108201;28;20627;-68
2022/12/19 04:02:43;;;;;;;109.90;40.63;;;2.80;99.90;;;;;;5109917;28;20197;-69
2022/12/19 04:05:16;;;;;;;110.57;38.90;;;2.80;99.90;;;;;;5106927;28;20275;-69
2022/12/19 04:07:44;;;;;;;111.60;40.17;;;2.80;99.90;;;;;;5110711;28;20199;-68
2022/12/19 04:10:15;;;;;;;111.00;38.73;;;2.80;99.90;;;;;;5107417;28;20235;-67
2022/12/19 04:12:47;;;;;;;114.90;40.10;;;2.90;99.90;;;;;;5112145;27;20649;-67
2022/12/19 04:15:15;;;;;;;106.47;39.67;;;2.90;99.90;;;;;;5110854;28;20314;-67
2022/12/19 04:17:57;;;;;;;115.53;40.13;;;3.00;99.90;;;;;;5109412;28;20235;-67
2022/12/19 04:20:25;;;;;;;116.73;37.67;;;3.00;99.90;;;;;;5108226;28;20348;-68
2022/12/19 04:23:15;;;;;;;112.77;39.63;;;3.00;99.90;;;;;;5106929;28;20737;-69
2022/12/19 04:25:46;;;;;;;113.33;38.87;;;3.10;99.90;;;;;;5108738;28;20311;-69
2022/12/19 04:28:25;;;;;;;110.50;37.67;;;3.10;99.90;;;;;;5089491;28;20700;-67
2022/12/19 04:30:53;;;;;;;112.97;38.80;;;3.10;99.90;;;;;;5109829;28;20617;-67
2022/12/19 04:33:19;;;;;;;118.10;37.37;;;3.10;99.90;;;;;;5109728;28;20600;-67
2022/12/19 04:35:46;;;;;;;104.00;37.20;;;3.20;99.90;;;;;;5092795;28;20301;-67
2022/12/19 04:38:13;;;;;;;101.83;38.83;;;3.20;99.90;;;;;;5110087;28;20195;-68
2022/12/19 04:40:40;;;;;;;104.67;38.40;;;3.30;99.90;;;;;;5110098;28;20221;-67
2022/12/19 04:43:08;;;;;;;105.33;37.97;;;3.30;99.90;;;;;;5108654;28;20278;-68
2022/12/19 04:45:35;;;;;;;105.37;38.00;;;3.30;99.90;;;;;;5107428;28;20211;-68
2022/12/19 04:48:02;;;;;;;110.53;38.37;;;3.40;99.90;;;;;;5108918;28;20202;-68
2022/12/19 04:50:31;;;;;;;102.00;37.30;;;3.40;99.90;;;;;;5106117;28;20273;-68
2022/12/19 04:52:58;;;;;;;102.97;38.57;;;3.40;99.90;;;;;;5109055;28;20655;-68
2022/12/19 04:55:24;;;;;;;97.63;36.57;;;3.40;99.90;;;;;;5090399;28;20325;-68
2022/12/19 04:57:51;;;;;;;100.83;35.77;;;3.50;99.90;;;;;;5109506;28;20301;-68
2022/12/19 05:00:18;;;;;;;101.67;36.97;;;3.40;99.90;;;;;;5108631;28;20309;-68
2022/12/19 05:02:44;;;;;;;103.47;37.07;;;3.50;99.90;;;;;;5109153;28;20205;-69
2022/12/19 05:05:11;;;;;;;89.03;34.13;;;3.50;99.90;;;;;;5110320;28;20210;-68
2022/12/19 05:07:39;;;;;;;106.90;35.67;;;3.50;99.90;;;;;;5108779;28;20203;-68
2022/12/19 05:10:06;;;;;;;94.23;33.30;;;3.60;99.90;;;;;;5110089;28;20652;-68
2022/12/19 05:12:33;;;;;;;87.30;33.20;;;3.60;99.90;;;;;;5110621;28;20233;-69
2022/12/19 05:15:00;;;;;;;85.17;32.80;;;3.60;99.90;;;;;;5108175;28;20730;-69
2022/12/19 05:17:27;;;;;;;89.80;34.63;;;3.70;99.90;;;;;;5109766;28;20243;-68
2022/12/19 05:19:53;;;;;;;85.37;32.00;;;3.70;99.90;;;;;;5109138;28;20315;-68
2022/12/19 05:22:20;;;;;;;78.57;31.53;;;3.70;99.90;;;;;;5109514;28;20317;-68
2022/12/19 05:24:47;;;;;;;71.57;29.00;;;3.80;99.90;;;;;;5110330;28;20219;-68
2022/12/19 05:27:13;;;;;;;84.37;30.10;;;3.80;99.90;;;;;;5108047;28;20751;-68
2022/12/19 05:29:40;;;;;;;74.10;32.80;;;3.90;99.90;;;;;;5107277;28;20306;-68
2022/12/19 05:32:07;;;;;;;79.37;30.27;;;3.90;99.90;;;;;;5108910;28;20294;-68
2022/12/19 05:34:34;;;;;;;73.40;30.60;;;4.00;99.90;;;;;;5108995;28;20298;-68
2022/12/19 05:37:02;;;;;;;73.23;29.17;;;4.00;99.90;;;;;;5090887;28;20616;-68
2022/12/19 05:39:29;;;;;;;74.43;28.43;;;4.00;99.90;;;;;;5091773;28;20207;-68
2022/12/19 05:41:56;;;;;;;76.23;28.67;;;4.10;99.90;;;;;;5109176;28;20223;-68
2022/12/19 05:44:26;;;;;;;83.07;29.23;;;4.20;99.90;;;;;;5090521;28;20608;-69
2022/12/19 05:46:57;;;;;;;68.80;28.83;;;4.30;99.90;;;;;;5092209;28;20200;-68
2022/12/19 05:49:24;;;;;;;72.57;27.80;;;4.40;99.90;;;;;;5106738;28;20421;-69
2022/12/19 05:51:51;;;;;;;72.07;28.13;;;4.40;99.90;;;;;;5083152;28;20204;-68
2022/12/19 05:54:18;;;;;;;74.97;29.63;;;4.50;99.90;;;;;;5109062;28;20295;-68
2022/12/19 05:56:45;;;;;;;71.13;28.37;;;4.50;99.90;;;;;;5109299;28;20222;-68
2022/12/19 05:59:11;;;;;;;59.10;26.83;;;4.50;99.90;;;;;;5107697;28;20220;-68
2022/12/19 06:01:38;;;;;;;59.23;27.23;;;4.60;99.90;;;;;;5106635;28;20316;-68
2022/12/19 06:04:06;;;;;;;71.27;26.57;;;4.60;99.90;;;;;;5107890;28;20195;-68
2022/12/19 06:06:33;;;;;;;58.53;24.63;;;4.60;99.90;;;;;;5110465;28;20604;-68
2022/12/19 06:09:00;;;;;;;62.70;25.80;;;4.60;99.90;;;;;;5112750;28;20200;-69
2022/12/19 06:11:27;;;;;;;57.07;24.37;;;4.70;99.90;;;;;;5109081;27;20206;-68
2022/12/19 06:13:54;;;;;;;57.73;24.97;;;4.70;99.90;;;;;;5089045;28;20288;-67
2022/12/19 06:16:22;;;;;;;51.60;23.30;;;4.70;99.90;;;;;;5109942;28;20702;-66
2022/12/19 06:18:49;;;;;;;51.87;23.23;;;4.70;99.90;;;;;;5110478;28;20204;-68
2022/12/19 06:21:19;;;;;;;49.00;23.00;;;4.80;99.90;;;;;;5110485;28;20274;-68
2022/12/19 06:23:46;;;;;;;52.20;23.23;;;4.80;99.90;;;;;;5110277;28;20211;-68
2022/12/19 06:26:15;;;;;;;49.97;22.70;;;4.90;99.90;;;;;;5108507;28;20215;-68
2022/12/19 06:28:46;;;;;;;49.37;22.43;;;4.90;99.90;;;;;;5109596;28;20252;-67
2022/12/19 06:31:14;;;;;;;51.07;22.87;;;4.90;99.90;;;;;;5110624;28;20191;-69
2022/12/19 06:33:41;;;;;;;51.13;21.90;;;4.90;99.90;;;;;;5094095;28;20204;-68
2022/12/19 06:36:20;;;;;;;49.10;21.97;;;5.00;99.90;;;;;;5112382;28;20202;-68
2022/12/19 06:38:48;;;;;;;54.77;22.97;;;4.90;99.90;;;;;;5110690;28;20285;-69
2022/12/19 06:44:03;;;;;;;51.40;22.43;;;5.00;99.90;;;;;;5109012;28;20281;-69
2022/12/19 06:46:30;;;;;;;47.97;21.70;;;5.00;99.90;;;;;;5109689;28;20242;-68
2022/12/19 06:48:57;;;;;;;50.40;21.80;;;5.00;99.90;;;;;;5090526;28;20233;-69
2022/12/19 06:51:24;;;;;;;52.70;23.77;;;5.10;99.90;;;;;;5106680;28;20244;-67
2022/12/19 06:53:51;;;;;;;48.97;22.40;;;5.20;99.90;;;;;;5111594;28;20217;-68
2022/12/19 06:56:19;;;;;;;53.43;22.47;;;5.20;99.90;;;;;;5111344;28;20205;-68
2022/12/19 06:58:46;;;;;;;53.47;22.93;;;5.30;99.90;;;;;;5111554;28;20220;-69
2022/12/19 07:01:27;;;;;;;49.93;23.07;;;5.30;99.90;;;;;;5112284;28;20290;-69
2022/12/19 07:03:54;;;;;;;55.40;23.13;;;5.40;99.90;;;;;;5109223;28;20201;-67
2022/12/19 07:06:22;;;;;;;49.93;23.53;;;5.40;99.90;;;;;;5112486;28;20210;-67
2022/12/19 07:08:52;;;;;;;48.47;23.00;;;5.40;99.90;;;;;;5110153;28;20198;-68
2022/12/19 07:11:19;;;;;;;50.27;23.23;;;5.50;99.90;;;;;;5105079;28;20499;-68
2022/12/19 07:13:45;;;;;;;52.53;23.80;;;5.50;99.90;;;;;;5086457;28;20295;-69
2022/12/19 07:16:12;;;;;;;53.77;24.37;;;5.50;99.90;;;;;;5071560;28;20293;-68
2022/12/19 07:18:40;;;;;;;50.60;24.30;;;5.60;99.90;;;;;;5106880;28;20205;-69
2022/12/19 07:21:10;;;;;;;51.00;23.93;;;5.60;99.90;;;;;;5104382;28;20227;-68
2022/12/19 07:23:38;;;;;;;55.27;24.23;;;5.70;99.90;;;;;;5091515;28;20202;-68
2022/12/19 07:26:04;;;;;;;48.80;22.37;;;5.70;99.90;;;;;;5111889;28;20288;-68
2022/12/19 07:28:32;;;;;;;53.57;22.73;;;5.80;99.90;;;;;;5112180;28;20215;-68
2022/12/19 07:30:59;;;;;;;48.37;22.73;;;5.80;99.90;;;;;;5112318;28;20245;-68
2022/12/19 07:33:26;;;;;;;45.93;22.73;;;5.80;99.90;;;;;;5111514;28;20648;-68
2022/12/19 07:35:53;;;;;;;46.43;22.67;;;5.80;99.90;;;;;;5111347;28;20293;-68
2022/12/19 07:38:19;;;;;;;52.93;23.37;;;5.90;99.90;;;;;;5112088;28;20242;-69
2022/12/19 07:40:46;;;;;;;47.47;22.10;;;5.90;99.90;;;;;;5090481;28;20405;-68
2022/12/19 07:43:13;;;;;;;44.87;21.83;;;5.90;99.90;;;;;;5107208;28;20243;-68
2022/12/19 07:45:40;;;;;;;51.37;22.10;;;6.00;99.90;;;;;;5105925;28;20298;-68
2022/12/19 07:48:07;;;;;;;50.70;22.83;;;6.00;99.90;;;;;;5108436;27;20199;-67
2022/12/19 07:50:34;;;;;;;47.43;22.37;;;6.10;99.90;;;;;;5111158;27;20233;-68
2022/12/19 07:53:01;;;;;;;52.03;22.70;;;6.20;99.90;;;;;;5106526;28;20318;-68
2022/12/19 07:55:28;;;;;;;56.27;24.73;;;6.20;99.90;;;;;;5111252;28;20559;-68
2022/12/19 07:57:54;;;;;;;51.77;23.70;;;6.30;99.90;;;;;;5109676;28;20221;-68
2022/12/19 08:00:22;;;;;;;50.77;21.87;;;6.40;99.90;;;;;;5107145;28;20321;-67
2022/12/19 08:02:49;;;;;;;52.40;25.27;;;6.50;99.90;;;;;;5110333;28;20218;-69
2022/12/19 08:05:16;;;;;;;53.73;22.83;;;6.60;99.90;;;;;;5110708;28;20682;-68
2022/12/19 08:07:43;;;;;;;49.83;24.03;;;6.70;99.90;;;;;;5110274;28;20286;-68
2022/12/19 08:10:13;;;;;;;54.73;25.63;;;6.80;99.90;;;;;;5106471;28;20260;-68
2022/12/19 08:12:41;;;;;;;54.73;25.77;;;6.90;99.90;;;;;;5109280;28;20215;-68
2022/12/19 08:15:08;;;;;;;52.87;24.63;;;7.00;99.90;;;;;;5104536;28;20302;-68
2022/12/19 08:17:37;;;;;;;54.87;25.33;;;7.00;99.90;;;;;;5107069;28;20191;-68
2022/12/19 08:20:06;;;;;;;51.17;26.03;;;7.10;99.90;;;;;;5103024;28;20234;-68
2022/12/19 08:22:34;;;;;;;52.13;25.77;;;7.10;99.90;;;;;;5104279;28;20253;-68
2022/12/19 08:25:00;;;;;;;49.47;23.87;;;7.20;99.90;;;;;;5105557;28;20298;-67
2022/12/19 08:27:27;;;;;;;45.57;23.77;;;7.20;99.90;;;;;;5110359;28;20233;-67
2022/12/19 08:29:54;;;;;;;45.87;23.20;;;7.30;99.90;;;;;;5109997;28;20663;-67
2022/12/19 08:32:21;;;;;;;46.17;23.40;;;7.30;99.90;;;;;;5110496;28;20229;-68
2022/12/19 08:34:49;;;;;;;44.17;22.40;;;7.30;99.90;;;;;;5110072;28;20657;-68
2022/12/19 08:37:16;;;;;;;47.27;24.27;;;7.40;99.90;;;;;;5110315;28;20207;-68
2022/12/19 08:39:43;;;;;;;42.97;22.13;;;7.40;99.90;;;;;;5110933;28;20274;-68
2022/12/19 08:42:09;;;;;;;40.00;21.30;;;7.50;99.90;;;;;;5107531;28;20684;-67
2022/12/19 08:44:36;;;;;;;42.17;22.23;;;7.50;99.90;;;;;;5110418;28;20265;-68
2022/12/19 08:47:03;;;;;;;45.17;22.03;;;7.50;99.90;;;;;;5092188;28;20679;-68
2022/12/19 08:49:30;;;;;;;39.47;20.80;;;7.60;99.90;;;;;;5111339;27;20224;-68
2022/12/19 08:51:57;;;;;;;39.57;20.60;;;7.60;99.90;;;;;;5103225;28;20211;-69
2022/12/19 08:54:23;;;;;;;43.87;20.80;;;7.60;99.90;;;;;;5109913;28;20620;-68
2022/12/19 08:56:50;;;;;;;38.93;19.37;;;7.60;99.90;;;;;;5110336;28;20223;-68
2022/12/19 08:59:17;;;;;;;35.87;20.10;;;7.60;99.90;;;;;;5110273;28;20215;-67
2022/12/19 09:01:56;;;;;;;37.93;20.50;;;7.70;99.90;;;;;;5103967;28;20596;-68
2022/12/19 09:04:23;;;;;;;36.03;19.80;;;7.70;99.90;;;;;;5108767;28;20209;-67
2022/12/19 09:07:10;;;;;;;35.57;19.50;;;7.70;99.90;;;;;;5108280;28;20680;-68
2022/12/19 09:09:40;;;;;;;35.43;18.53;;;7.80;99.90;;;;;;5107989;28;20214;-67
2022/12/19 09:12:07;;;;;;;34.23;18.60;;;7.80;99.90;;;;;;5110266;28;20268;-68
2022/12/19 09:14:34;;;;;;;32.10;18.83;;;7.80;99.90;;;;;;5109762;28;20197;-66
2022/12/19 09:17:01;;;;;;;31.27;17.17;;;7.80;99.90;;;;;;5109897;28;20274;-68
2022/12/19 09:19:30;;;;;;;30.93;17.80;;;7.90;99.90;;;;;;5105192;28;20303;-68
2022/12/19 09:21:57;;;;;;;32.37;17.07;;;7.90;99.90;;;;;;5107329;28;20340;-68
2022/12/19 09:24:24;;;;;;;33.67;17.63;;;7.90;99.90;;;;;;5108974;28;20207;-68
2022/12/19 09:26:51;;;;;;;31.23;17.27;;;7.90;99.90;;;;;;5106403;28;20222;-67
2022/12/19 09:29:18;;;;;;;30.83;16.23;;;7.90;99.90;;;;;;5106856;28;20232;-67
2022/12/19 09:31:48;;;;;;;29.17;16.37;;;8.00;99.90;;;;;;5106792;28;20210;-66
2022/12/19 09:34:24;;;;;;;27.07;14.90;;;8.00;99.90;;;;;;5109952;28;20257;-68
2022/12/19 09:37:08;;;;;;;27.40;14.90;;;7.90;99.90;;;;;;5107650;28;20213;-68
2022/12/19 09:39:44;;;;;;;27.87;15.60;;;8.00;99.90;;;;;;5087622;28;20227;-68
2022/12/19 09:42:32;;;;;;;29.50;16.23;;;8.00;99.90;;;;;;5111339;28;20238;-68
2022/12/19 09:45:23;;;;;;;29.60;14.97;;;8.00;99.90;;;;;;5110941;28;20213;-68
2022/12/19 09:47:59;;;;;;;23.00;14.70;;;8.00;99.90;;;;;;5113485;27;20751;-68
2022/12/19 09:50:46;;;;;;;26.37;15.90;;;8.00;99.90;;;;;;5112855;28;20233;-68
2022/12/19 09:53:54;;;;;;;29.73;14.97;;;8.10;99.90;;;;;;5112779;28;20637;-68
2022/12/19 09:56:25;;;;;;;27.80;15.43;;;8.00;99.90;;;;;;5107818;28;20296;-68
2022/12/19 09:59:16;;;;;;;26.50;15.37;;;8.10;99.90;;;;;;5113001;28;20332;-67
2022/12/19 10:02:00;;;;;;;28.10;14.97;;;8.10;99.90;;;;;;5111951;28;20320;-68
2022/12/19 10:04:31;;;;;;;27.67;15.43;;;8.10;99.90;;;;;;5113291;28;20204;-68
2022/12/19 10:06:59;;;;;;;24.67;14.67;;;8.10;99.90;;;;;;5095264;28;20212;-66
2022/12/19 10:09:46;;;;;;;26.80;14.77;;;8.10;99.90;;;;;;5107551;28;20209;-67
2022/12/19 10:12:49;;;;;;;25.17;14.53;;;8.10;99.90;;;;;;5109832;28;20212;-68
2022/12/19 10:15:44;;;;;;;26.07;15.20;;;8.10;99.90;;;;;;5111665;28;20202;-68
2022/12/19 10:18:46;;;;;;;27.60;15.20;;;8.10;99.90;;;;;;5111717;28;20230;-68
2022/12/19 10:21:39;;;;;;;26.40;14.77;;;8.20;99.90;;;;;;5112627;28;20270;-68
2022/12/19 10:24:45;;;;;;;23.50;15.00;;;8.20;99.90;;;;;;5112167;28;20216;-68
2022/12/19 10:27:57;;;;;;;24.47;15.47;;;8.20;99.90;;;;;;5110760;28;20583;-67
2022/12/19 10:30:30;;;;;;;29.70;15.57;;;8.30;99.90;;;;;;5112746;28;20267;-68
2022/12/19 10:33:04;;;;;;;25.07;15.47;;;8.30;99.90;;;;;;5112366;28;20212;-68
2022/12/19 10:35:36;;;;;;;26.93;14.80;;;8.30;99.90;;;;;;5109382;28;20568;-68
2022/12/19 10:38:20;;;;;;;23.33;14.90;;;8.30;99.90;;;;;;5111582;28;20190;-66
2022/12/19 10:41:08;;;;;;;23.13;14.80;;;8.30;99.90;;;;;;5108505;28;20228;-68
2022/12/19 10:43:57;;;;;;;22.97;14.90;;;8.30;99.90;;;;;;5111690;28;20309;-68
2022/12/19 10:46:27;;;;;;;23.83;14.50;;;8.30;99.90;;;;;;5110755;28;20674;-67
2022/12/19 10:48:53;;;;;;;27.17;15.80;;;8.30;99.90;;;;;;5111406;28;20832;-68
2022/12/19 10:51:27;;;;;;;27.77;14.83;;;8.40;99.90;;;;;;5109266;28;20703;-68
2022/12/19 10:53:56;;;;;;;23.90;14.43;;;8.40;99.90;;;;;;5110125;28;20205;-67
2022/12/19 10:56:28;;;;;;;24.37;14.40;;;8.50;99.90;;;;;;5111789;28;20209;-69
2022/12/19 10:59:14;;;;;;;23.63;14.17;;;8.50;99.90;;;;;;5110856;28;20204;-68
2022/12/19 11:01:42;;;;;;;24.30;14.73;;;8.50;99.90;;;;;;5111848;28;20234;-67
2022/12/19 11:04:34;;;;;;;25.90;14.40;;;8.50;99.90;;;;;;5099846;27;20317;-68
2022/12/19 11:07:02;;;;;;;25.40;14.57;;;8.50;99.90;;;;;;5109522;27;20205;-67
2022/12/19 11:09:30;;;;;;;22.97;13.90;;;8.60;99.90;;;;;;5107026;28;20221;-67
2022/12/19 11:12:11;;;;;;;26.50;15.10;;;8.60;99.90;;;;;;5108358;28;20223;-68
2022/12/19 11:15:09;;;;;;;23.40;14.60;;;8.60;99.90;;;;;;5106738;28;20197;-68
2022/12/19 11:18:11;;;;;;;21.77;13.33;;;8.70;99.90;;;;;;5105632;28;20209;-67
2022/12/19 11:21:13;;;;;;;24.37;13.77;;;8.70;99.90;;;;;;5108415;28;20210;-67
2022/12/19 11:24:03;;;;;;;24.37;14.07;;;8.70;99.90;;;;;;5109242;28;20206;-67
2022/12/19 11:26:52;;;;;;;24.07;14.07;;;8.70;99.90;;;;;;5107673;28;20215;-67
2022/12/19 11:29:41;;;;;;;23.53;14.33;;;;;;;;;;5107013;28;20207;-67
2022/12/19 11:32:31;;;;;;;24.37;13.07;;;8.80;99.90;;;;;;5110059;27;20218;-68
2022/12/19 11:35:25;;;;;;;18.00;12.73;;;8.80;99.90;;;;;;5104479;28;20646;-69
2022/12/19 11:38:07;;;;;;;21.33;12.20;;;8.80;99.90;;;;;;5101903;28;20199;-68
2022/12/19 11:40:49;;;;;;;22.97;13.17;;;8.80;99.90;;;;;;5107152;27;20517;-68
2022/12/19 11:43:30;;;;;;;16.70;11.50;;;8.80;99.90;;;;;;5109709;28;20635;-68
2022/12/19 11:46:21;;;;;;;17.73;11.40;;;8.80;99.90;;;;;;5106918;28;20310;-69
2022/12/19 11:48:52;;;;;;;16.83;11.00;;;8.90;99.90;;;;;;5108391;28;20263;-68
2022/12/19 11:51:41;;;;;;;17.63;11.13;;;8.90;99.90;;;;;;5105775;27;20227;-68
2022/12/19 11:54:26;;;;;;;19.80;11.60;;;8.90;99.90;;;;;;5106706;28;20199;-68
2022/12/19 11:56:54;;;;;;;18.30;11.43;;;8.90;99.90;;;;;;5109170;28;20305;-68
2022/12/19 11:59:34;;;;;;;20.93;11.37;;;8.90;99.90;;;;;;5085765;28;20207;-68
2022/12/19 12:02:23;;;;;;;17.33;10.73;;;8.90;99.90;;;;;;5109065;27;20219;-68
2022/12/19 12:05:26;;;;;;;21.07;11.33;;;8.90;99.90;;;;;;5109243;28;20238;-66
2022/12/19 12:08:15;;;;;;;16.47;10.83;;;8.90;99.90;;;;;;5108550;28;20229;-68
2022/12/19 12:11:11;;;;;;;19.13;11.47;;;8.90;99.90;;;;;;5109349;28;20198;-68
2022/12/19 12:14:04;;;;;;;19.60;11.93;;;8.90;99.90;;;;;;5103953;28;20639;-68
2022/12/19 12:17:33;;;;;;;17.97;11.17;;;9.00;99.90;;;;;;5107132;28;20210;-68
2022/12/19 12:20:31;;;;;;;16.97;11.33;;;9.00;99.90;;;;;;5108061;28;20209;-67
2022/12/19 12:23:24;;;;;;;19.07;11.70;;;8.90;99.90;;;;;;5105996;28;20209;-68
2022/12/19 12:26:26;;;;;;;16.90;11.63;;;9.00;99.90;;;;;;5110512;28;20226;-68
2022/12/19 12:29:19;;;;;;;18.73;11.20;;;9.00;99.90;;;;;;5108876;28;20570;-68
2022/12/19 12:32:21;;;;;;;15.43;10.97;;;9.00;99.90;;;;;;5109664;28;20578;-67
2022/12/19 12:35:17;;;;;;;19.87;11.40;;;9.10;99.90;;;;;;5109254;28;20216;-69
2022/12/19 12:38:24;;;;;;;17.40;11.57;;;9.10;99.90;;;;;;5084240;28;20195;-68
2022/12/19 12:42:02;;;;;;;16.43;11.50;;;9.10;99.90;;;;;;5107849;28;20570;-66
2022/12/19 12:44:14;;;;;;;14.30;9.87;;;9.10;99.90;;;;;;5105525;28;20297;-69
2022/12/19 12:46:47;;;;;;;15.37;9.67;;;9.20;99.90;;;;;;5110290;28;20298;-66
2022/12/19 12:49:34;;;;;;;15.57;9.00;;;9.20;99.90;;;;;;5108142;28;20317;-67
2022/12/19 12:52:04;;;;;;;13.97;10.17;;;9.20;99.90;;;;;;5109537;28;20237;-68
2022/12/19 12:54:38;;;;;;;13.57;9.13;;;9.30;99.90;;;;;;5108097;28;20286;-68
2022/12/19 12:57:04;;;;;;;14.03;9.00;;;9.30;99.90;;;;;;5104760;28;20748;-67
2022/12/19 12:59:31;;;;;;;11.90;8.57;;;9.30;99.90;;;;;;5109337;28;20238;-68
2022/12/19 13:02:11;;;;;;;13.97;8.97;;;9.30;99.90;;;;;;5108746;28;20334;-68
2022/12/19 13:04:52;;;;;;;9.97;7.60;;;9.40;99.90;;;;;;5108175;28;20256;-67
2022/12/19 13:07:33;;;;;;;13.57;7.77;;;9.40;99.90;;;;;;5106324;28;20217;-67
2022/12/19 13:10:19;;;;;;;11.47;7.50;;;9.40;99.90;;;;;;5109404;27;20215;-67
2022/12/19 13:13:07;;;;;;;11.50;7.53;;;9.40;99.90;;;;;;5107794;28;20338;-68
2022/12/19 13:15:44;;;;;;;11.13;7.43;;;9.50;99.90;;;;;;5107005;28;20208;-68
2022/12/19 13:18:31;;;;;;;11.20;7.53;;;9.50;99.90;;;;;;5107782;28;20237;-67
2022/12/19 13:21:00;;;;;;;10.00;7.10;;;9.50;99.90;;;;;;5107907;28;20293;-67